sensor_id;sensor_type;location;lat;lon;timestamp;temperature;humidity
13561;DHT22;6852;51.686;5.314;2023-04-24T00:01:22;9.80;99.90
13561;DHT22;6852;51.686;5.314;2023-04-24T00:03:49;9.90;99.90
13561;DHT22;6852;51.686;5.314;2023-04-24T00:06:16;9.90;99.90
13561;DHT22;6852;51.686;5.314;2023-04-24T00:08:43;9.90;99.90
13561;DHT22;6852;51.686;5.314;2023-04-24T00:11:10;9.90;99.90
13561;DHT22;6852;51.686;5.314;2023-04-24T00:13:38;9.90;99.90
13561;DHT22;6852;51.686;5.314;2023-04-24T00:16:05;10.00;99.90
13561;DHT22;6852;51.686;5.314;2023-04-24T00:18:32;9.90;99.90
13561;DHT22;6852;51.686;5.314;2023-04-24T00:20:59;10.00;99.90
13561;DHT22;6852;51.686;5.314;2023-04-24T00:23:26;10.00;99.90
13561;DHT22;6852;51.686;5.314;2023-04-24T00:25:53;10.00;99.90
13561;DHT22;6852;51.686;5.314;2023-04-24T00:28:20;10.00;99.90
13561;DHT22;6852;51.686;5.314;2023-04-24T00:30:47;10.00;99.90
13561;DHT22;6852;51.686;5.314;2023-04-24T00:33:14;10.00;99.90
13561;DHT22;6852;51.686;5.314;2023-04-24T00:35:41;10.10;99.90
13561;DHT22;6852;51.686;5.314;2023-04-24T00:38:08;10.00;99.90
13561;DHT22;6852;51.686;5.314;2023-04-24T00:40:35;10.10;99.90
13561;DHT22;6852;51.686;5.314;2023-04-24T00:43:02;10.00;99.90
13561;DHT22;6852;51.686;5.314;2023-04-24T00:45:29;10.00;99.90
13561;DHT22;6852;51.686;5.314;2023-04-24T00:47:58;10.00;99.90
13561;DHT22;6852;51.686;5.314;2023-04-24T00:50:25;10.00;99.90
13561;DHT22;6852;51.686;5.314;2023-04-24T00:52:53;10.00;99.90
13561;DHT22;6852;51.686;5.314;2023-04-24T00:55:20;10.10;99.90
13561;DHT22;6852;51.686;5.314;2023-04-24T00:57:47;10.10;99.90
13561;DHT22;6852;51.686;5.314;2023-04-24T01:00:15;10.10;99.90
13561;DHT22;6852;51.686;5.314;2023-04-24T01:02:44;10.10;99.90
13561;DHT22;6852;51.686;5.314;2023-04-24T01:05:13;10.00;99.90
13561;DHT22;6852;51.686;5.314;2023-04-24T01:07:41;10.10;99.90
13561;DHT22;6852;51.686;5.314;2023-04-24T01:10:11;10.00;99.90
13561;DHT22;6852;51.686;5.314;2023-04-24T01:12:39;10.10;99.90
13561;DHT22;6852;51.686;5.314;2023-04-24T01:15:06;10.00;99.90
13561;DHT22;6852;51.686;5.314;2023-04-24T01:17:34;9.90;99.90
13561;DHT22;6852;51.686;5.314;2023-04-24T01:20:01;9.90;99.90
13561;DHT22;6852;51.686;5.314;2023-04-24T01:22:29;10.00;99.90
13561;DHT22;6852;51.686;5.314;2023-04-24T01:24:56;9.90;99.90
13561;DHT22;6852;51.686;5.314;2023-04-24T01:27:23;9.90;99.90
13561;DHT22;6852;51.686;5.314;2023-04-24T01:29:50;9.90;99.90
13561;DHT22;6852;51.686;5.314;2023-04-24T01:32:18;9.90;99.90
13561;DHT22;6852;51.686;5.314;2023-04-24T01:34:46;9.90;99.90
13561;DHT22;6852;51.686;5.314;2023-04-24T01:37:14;9.90;99.90
13561;DHT22;6852;51.686;5.314;2023-04-24T01:39:43;9.80;99.90
13561;DHT22;6852;51.686;5.314;2023-04-24T01:42:10;9.80;99.90
13561;DHT22;6852;51.686;5.314;2023-04-24T01:44:38;9.90;99.90
13561;DHT22;6852;51.686;5.314;2023-04-24T01:47:05;9.90;99.90
13561;DHT22;6852;51.686;5.314;2023-04-24T01:49:32;9.90;99.90
13561;DHT22;6852;51.686;5.314;2023-04-24T01:52:00;9.90;99.90
13561;DHT22;6852;51.686;5.314;2023-04-24T01:54:27;9.90;99.90
13561;DHT22;6852;51.686;5.314;2023-04-24T01:56:53;9.90;99.90
13561;DHT22;6852;51.686;5.314;2023-04-24T01:59:21;9.90;99.90
13561;DHT22;6852;51.686;5.314;2023-04-24T02:01:48;9.90;99.90
13561;DHT22;6852;51.686;5.314;2023-04-24T02:04:15;9.90;99.90
13561;DHT22;6852;51.686;5.314;2023-04-24T02:06:42;9.90;99.90
13561;DHT22;6852;51.686;5.314;2023-04-24T02:09:09;9.80;99.90
13561;DHT22;6852;51.686;5.314;2023-04-24T02:11:37;9.80;99.90
13561;DHT22;6852;51.686;5.314;2023-04-24T02:14:04;9.80;99.90
13561;DHT22;6852;51.686;5.314;2023-04-24T02:16:31;9.80;99.90
13561;DHT22;6852;51.686;5.314;2023-04-24T02:18:59;9.80;99.90
13561;DHT22;6852;51.686;5.314;2023-04-24T02:21:26;9.70;99.90
13561;DHT22;6852;51.686;5.314;2023-04-24T02:23:54;9.70;99.90
13561;DHT22;6852;51.686;5.314;2023-04-24T02:26:21;9.70;99.90
13561;DHT22;6852;51.686;5.314;2023-04-24T02:28:48;9.70;99.90
13561;DHT22;6852;51.686;5.314;2023-04-24T02:31:15;9.60;99.90
13561;DHT22;6852;51.686;5.314;2023-04-24T02:33:42;9.60;99.90
13561;DHT22;6852;51.686;5.314;2023-04-24T02:36:09;9.50;99.90
13561;DHT22;6852;51.686;5.314;2023-04-24T02:38:36;9.50;99.90
13561;DHT22;6852;51.686;5.314;2023-04-24T02:41:02;9.50;99.90
13561;DHT22;6852;51.686;5.314;2023-04-24T02:43:32;9.50;99.90
13561;DHT22;6852;51.686;5.314;2023-04-24T02:46:00;9.50;99.90
13561;DHT22;6852;51.686;5.314;2023-04-24T02:48:27;9.40;99.90
13561;DHT22;6852;51.686;5.314;2023-04-24T02:50:54;9.50;99.90
13561;DHT22;6852;51.686;5.314;2023-04-24T02:53:21;9.50;99.90
13561;DHT22;6852;51.686;5.314;2023-04-24T02:55:48;9.50;99.90
13561;DHT22;6852;51.686;5.314;2023-04-24T02:58:15;9.60;99.90
13561;DHT22;6852;51.686;5.314;2023-04-24T03:00:42;9.50;99.90
13561;DHT22;6852;51.686;5.314;2023-04-24T03:03:10;9.50;99.90
13561;DHT22;6852;51.686;5.314;2023-04-24T03:05:37;9.40;99.90
13561;DHT22;6852;51.686;5.314;2023-04-24T03:08:04;9.40;99.90
13561;DHT22;6852;51.686;5.314;2023-04-24T03:10:31;9.40;99.90
13561;DHT22;6852;51.686;5.314;2023-04-24T03:12:58;9.30;99.90
13561;DHT22;6852;51.686;5.314;2023-04-24T03:15:26;9.30;99.90
13561;DHT22;6852;51.686;5.314;2023-04-24T03:17:53;9.20;99.90
13561;DHT22;6852;51.686;5.314;2023-04-24T03:20:22;9.30;99.90
13561;DHT22;6852;51.686;5.314;2023-04-24T03:22:49;9.30;99.90
13561;DHT22;6852;51.686;5.314;2023-04-24T03:25:16;9.20;99.90
13561;DHT22;6852;51.686;5.314;2023-04-24T03:27:43;9.30;99.90
13561;DHT22;6852;51.686;5.314;2023-04-24T03:30:10;9.20;99.90
13561;DHT22;6852;51.686;5.314;2023-04-24T03:32:37;9.20;99.90
13561;DHT22;6852;51.686;5.314;2023-04-24T03:35:07;9.20;99.90
13561;DHT22;6852;51.686;5.314;2023-04-24T03:37:34;9.20;99.90
13561;DHT22;6852;51.686;5.314;2023-04-24T03:40:02;9.30;99.90
13561;DHT22;6852;51.686;5.314;2023-04-24T03:42:29;9.20;99.90
13561;DHT22;6852;51.686;5.314;2023-04-24T03:44:56;9.20;99.90
13561;DHT22;6852;51.686;5.314;2023-04-24T03:47:23;9.20;99.90
13561;DHT22;6852;51.686;5.314;2023-04-24T03:49:50;9.20;99.90
13561;DHT22;6852;51.686;5.314;2023-04-24T03:52:17;9.20;99.90
13561;DHT22;6852;51.686;5.314;2023-04-24T03:54:44;9.20;99.90
13561;DHT22;6852;51.686;5.314;2023-04-24T03:57:11;9.20;99.90
13561;DHT22;6852;51.686;5.314;2023-04-24T03:59:38;9.30;99.90
13561;DHT22;6852;51.686;5.314;2023-04-24T04:02:05;9.20;99.90
13561;DHT22;6852;51.686;5.314;2023-04-24T04:04:32;9.20;99.90
13561;DHT22;6852;51.686;5.314;2023-04-24T04:06:59;9.20;99.90
13561;DHT22;6852;51.686;5.314;2023-04-24T04:09:29;9.20;99.90
13561;DHT22;6852;51.686;5.314;2023-04-24T04:11:56;9.20;99.90
13561;DHT22;6852;51.686;5.314;2023-04-24T04:14:23;9.20;99.90
13561;DHT22;6852;51.686;5.314;2023-04-24T04:16:50;9.20;99.90
13561;DHT22;6852;51.686;5.314;2023-04-24T04:19:20;9.20;99.90
13561;DHT22;6852;51.686;5.314;2023-04-24T04:21:47;9.10;99.90
13561;DHT22;6852;51.686;5.314;2023-04-24T04:24:19;9.10;99.90
13561;DHT22;6852;51.686;5.314;2023-04-24T04:26:50;9.10;99.90
13561;DHT22;6852;51.686;5.314;2023-04-24T04:29:18;9.10;99.90
13561;DHT22;6852;51.686;5.314;2023-04-24T04:31:45;9.10;99.90
13561;DHT22;6852;51.686;5.314;2023-04-24T04:34:12;9.10;99.90
13561;DHT22;6852;51.686;5.314;2023-04-24T04:36:41;9.10;99.90
13561;DHT22;6852;51.686;5.314;2023-04-24T04:39:08;9.10;99.90
13561;DHT22;6852;51.686;5.314;2023-04-24T04:41:35;9.20;99.90
13561;DHT22;6852;51.686;5.314;2023-04-24T04:44:02;9.20;99.90
13561;DHT22;6852;51.686;5.314;2023-04-24T04:46:31;9.20;99.90
13561;DHT22;6852;51.686;5.314;2023-04-24T04:49:03;9.30;99.90
13561;DHT22;6852;51.686;5.314;2023-04-24T04:51:30;9.20;99.90
13561;DHT22;6852;51.686;5.314;2023-04-24T04:53:57;9.20;99.90
13561;DHT22;6852;51.686;5.314;2023-04-24T04:56:24;9.20;99.90
13561;DHT22;6852;51.686;5.314;2023-04-24T04:58:52;9.30;99.90
13561;DHT22;6852;51.686;5.314;2023-04-24T05:01:19;9.30;99.90
13561;DHT22;6852;51.686;5.314;2023-04-24T05:03:46;9.30;99.90
13561;DHT22;6852;51.686;5.314;2023-04-24T05:06:13;9.30;99.90
13561;DHT22;6852;51.686;5.314;2023-04-24T05:08:40;9.30;99.90
13561;DHT22;6852;51.686;5.314;2023-04-24T05:11:07;9.20;99.90
13561;DHT22;6852;51.686;5.314;2023-04-24T05:13:34;9.20;99.90
13561;DHT22;6852;51.686;5.314;2023-04-24T05:16:06;9.20;99.90
13561;DHT22;6852;51.686;5.314;2023-04-24T05:18:33;9.20;99.90
13561;DHT22;6852;51.686;5.314;2023-04-24T05:21:00;9.20;99.90
13561;DHT22;6852;51.686;5.314;2023-04-24T05:23:28;9.20;99.90
13561;DHT22;6852;51.686;5.314;2023-04-24T05:25:54;9.30;99.90
13561;DHT22;6852;51.686;5.314;2023-04-24T05:28:21;9.40;99.90
13561;DHT22;6852;51.686;5.314;2023-04-24T05:30:48;9.60;99.90
13561;DHT22;6852;51.686;5.314;2023-04-24T05:33:15;9.50;99.90
13561;DHT22;6852;51.686;5.314;2023-04-24T05:35:42;9.50;99.90
13561;DHT22;6852;51.686;5.314;2023-04-24T05:38:13;9.70;99.90
13561;DHT22;6852;51.686;5.314;2023-04-24T05:40:44;9.80;99.90
13561;DHT22;6852;51.686;5.314;2023-04-24T05:43:11;9.70;99.90
13561;DHT22;6852;51.686;5.314;2023-04-24T05:45:38;9.60;99.90
13561;DHT22;6852;51.686;5.314;2023-04-24T05:48:05;9.80;99.90
13561;DHT22;6852;51.686;5.314;2023-04-24T05:50:32;9.80;99.90
13561;DHT22;6852;51.686;5.314;2023-04-24T05:53:02;9.80;99.90
13561;DHT22;6852;51.686;5.314;2023-04-24T05:55:30;9.80;99.90
13561;DHT22;6852;51.686;5.314;2023-04-24T05:57:57;9.80;99.90
13561;DHT22;6852;51.686;5.314;2023-04-24T06:00:25;9.60;99.90
13561;DHT22;6852;51.686;5.314;2023-04-24T06:02:52;9.80;99.90
13561;DHT22;6852;51.686;5.314;2023-04-24T06:05:20;9.90;99.90
13561;DHT22;6852;51.686;5.314;2023-04-24T06:07:47;9.80;99.90
13561;DHT22;6852;51.686;5.314;2023-04-24T06:10:14;9.70;99.90
13561;DHT22;6852;51.686;5.314;2023-04-24T06:12:42;9.80;99.90
13561;DHT22;6852;51.686;5.314;2023-04-24T06:15:09;9.90;99.90
13561;DHT22;6852;51.686;5.314;2023-04-24T06:17:36;9.90;99.90
13561;DHT22;6852;51.686;5.314;2023-04-24T06:20:03;10.00;99.90
13561;DHT22;6852;51.686;5.314;2023-04-24T06:22:32;10.00;99.90
13561;DHT22;6852;51.686;5.314;2023-04-24T06:24:59;10.00;99.90
13561;DHT22;6852;51.686;5.314;2023-04-24T06:27:27;9.90;99.90
13561;DHT22;6852;51.686;5.314;2023-04-24T06:29:54;9.90;99.90
13561;DHT22;6852;51.686;5.314;2023-04-24T06:32:22;10.10;99.90
13561;DHT22;6852;51.686;5.314;2023-04-24T06:34:53;10.00;99.90
13561;DHT22;6852;51.686;5.314;2023-04-24T06:37:20;9.90;99.90
13561;DHT22;6852;51.686;5.314;2023-04-24T06:39:47;9.60;99.90
13561;DHT22;6852;51.686;5.314;2023-04-24T06:42:14;9.70;99.90
13561;DHT22;6852;51.686;5.314;2023-04-24T06:44:41;9.70;99.90
13561;DHT22;6852;51.686;5.314;2023-04-24T06:47:09;9.80;99.90
13561;DHT22;6852;51.686;5.314;2023-04-24T06:49:37;9.70;99.90
13561;DHT22;6852;51.686;5.314;2023-04-24T06:52:04;9.60;99.90
13561;DHT22;6852;51.686;5.314;2023-04-24T06:54:31;9.50;99.90
13561;DHT22;6852;51.686;5.314;2023-04-24T06:56:59;9.50;99.90
13561;DHT22;6852;51.686;5.314;2023-04-24T06:59:27;9.40;99.90
13561;DHT22;6852;51.686;5.314;2023-04-24T07:01:55;9.30;99.90
13561;DHT22;6852;51.686;5.314;2023-04-24T07:04:22;9.20;99.90
13561;DHT22;6852;51.686;5.314;2023-04-24T07:06:52;9.20;99.90
13561;DHT22;6852;51.686;5.314;2023-04-24T07:09:21;9.20;99.90
13561;DHT22;6852;51.686;5.314;2023-04-24T07:11:49;9.20;99.90
13561;DHT22;6852;51.686;5.314;2023-04-24T07:14:16;9.20;99.90
13561;DHT22;6852;51.686;5.314;2023-04-24T07:16:43;9.20;99.90
13561;DHT22;6852;51.686;5.314;2023-04-24T07:19:10;9.10;99.90
13561;DHT22;6852;51.686;5.314;2023-04-24T07:21:37;9.10;99.90
13561;DHT22;6852;51.686;5.314;2023-04-24T07:24:03;9.10;99.90
13561;DHT22;6852;51.686;5.314;2023-04-24T07:26:31;9.10;99.90
13561;DHT22;6852;51.686;5.314;2023-04-24T07:28:58;9.20;99.90
13561;DHT22;6852;51.686;5.314;2023-04-24T07:31:24;9.20;99.90
13561;DHT22;6852;51.686;5.314;2023-04-24T07:33:52;9.10;99.90
13561;DHT22;6852;51.686;5.314;2023-04-24T07:36:19;9.30;99.90
13561;DHT22;6852;51.686;5.314;2023-04-24T07:38:46;9.30;99.90
13561;DHT22;6852;51.686;5.314;2023-04-24T07:41:13;9.30;99.90
13561;DHT22;6852;51.686;5.314;2023-04-24T07:43:41;9.20;99.90
13561;DHT22;6852;51.686;5.314;2023-04-24T07:46:08;9.20;99.90
13561;DHT22;6852;51.686;5.314;2023-04-24T07:48:36;9.10;99.90
13561;DHT22;6852;51.686;5.314;2023-04-24T07:51:03;9.20;99.90
13561;DHT22;6852;51.686;5.314;2023-04-24T07:53:30;9.10;99.90
13561;DHT22;6852;51.686;5.314;2023-04-24T07:55:57;9.20;99.90
13561;DHT22;6852;51.686;5.314;2023-04-24T07:58:24;9.20;99.90
13561;DHT22;6852;51.686;5.314;2023-04-24T08:00:51;9.20;99.90
13561;DHT22;6852;51.686;5.314;2023-04-24T08:03:17;9.20;99.90
13561;DHT22;6852;51.686;5.314;2023-04-24T08:05:47;9.10;99.90
13561;DHT22;6852;51.686;5.314;2023-04-24T08:08:14;9.10;99.90
13561;DHT22;6852;51.686;5.314;2023-04-24T08:10:41;9.20;99.90
13561;DHT22;6852;51.686;5.314;2023-04-24T08:13:08;9.10;99.90
13561;DHT22;6852;51.686;5.314;2023-04-24T08:15:40;9.10;99.90
13561;DHT22;6852;51.686;5.314;2023-04-24T08:18:07;9.10;99.90
13561;DHT22;6852;51.686;5.314;2023-04-24T08:20:34;9.10;99.90
13561;DHT22;6852;51.686;5.314;2023-04-24T08:23:03;9.00;99.90
13561;DHT22;6852;51.686;5.314;2023-04-24T08:25:30;9.10;99.90
13561;DHT22;6852;51.686;5.314;2023-04-24T08:27:56;9.10;99.90
13561;DHT22;6852;51.686;5.314;2023-04-24T08:30:23;9.20;99.90
13561;DHT22;6852;51.686;5.314;2023-04-24T08:32:50;9.10;99.90
13561;DHT22;6852;51.686;5.314;2023-04-24T08:35:17;9.10;99.90
13561;DHT22;6852;51.686;5.314;2023-04-24T08:37:45;9.10;99.90
13561;DHT22;6852;51.686;5.314;2023-04-24T08:40:13;9.20;99.90
13561;DHT22;6852;51.686;5.314;2023-04-24T08:42:44;9.20;99.90
13561;DHT22;6852;51.686;5.314;2023-04-24T08:45:12;9.20;99.90
13561;DHT22;6852;51.686;5.314;2023-04-24T08:47:40;9.20;99.90
13561;DHT22;6852;51.686;5.314;2023-04-24T08:50:09;9.30;99.90
13561;DHT22;6852;51.686;5.314;2023-04-24T08:52:36;9.30;99.90
13561;DHT22;6852;51.686;5.314;2023-04-24T08:55:03;9.30;99.90
13561;DHT22;6852;51.686;5.314;2023-04-24T08:57:31;9.40;99.90
13561;DHT22;6852;51.686;5.314;2023-04-24T08:59:59;9.40;99.90
13561;DHT22;6852;51.686;5.314;2023-04-24T09:02:26;9.30;99.90
13561;DHT22;6852;51.686;5.314;2023-04-24T09:04:56;9.30;99.90
13561;DHT22;6852;51.686;5.314;2023-04-24T09:07:25;9.40;99.90
13561;DHT22;6852;51.686;5.314;2023-04-24T09:09:54;9.30;99.90
13561;DHT22;6852;51.686;5.314;2023-04-24T09:12:21;9.40;99.90
13561;DHT22;6852;51.686;5.314;2023-04-24T09:14:49;9.60;99.90
13561;DHT22;6852;51.686;5.314;2023-04-24T09:17:17;9.60;99.90
13561;DHT22;6852;51.686;5.314;2023-04-24T09:19:43;9.60;99.90
13561;DHT22;6852;51.686;5.314;2023-04-24T09:22:11;9.60;99.90
13561;DHT22;6852;51.686;5.314;2023-04-24T09:24:38;9.70;99.90
13561;DHT22;6852;51.686;5.314;2023-04-24T09:27:05;9.80;99.90
13561;DHT22;6852;51.686;5.314;2023-04-24T09:29:35;9.90;99.90
13561;DHT22;6852;51.686;5.314;2023-04-24T09:32:21;10.00;99.90
13561;DHT22;6852;51.686;5.314;2023-04-24T09:34:49;9.90;99.90
13561;DHT22;6852;51.686;5.314;2023-04-24T09:37:28;9.90;99.90
13561;DHT22;6852;51.686;5.314;2023-04-24T09:42:39;9.80;99.90
13561;DHT22;6852;51.686;5.314;2023-04-24T09:45:10;9.70;99.90
13561;DHT22;6852;51.686;5.314;2023-04-24T09:47:41;9.60;99.90
13561;DHT22;6852;51.686;5.314;2023-04-24T09:50:13;9.60;99.90
13561;DHT22;6852;51.686;5.314;2023-04-24T09:52:46;9.60;99.90
13561;DHT22;6852;51.686;5.314;2023-04-24T09:55:19;9.60;99.90
13561;DHT22;6852;51.686;5.314;2023-04-24T09:57:53;9.60;99.90
13561;DHT22;6852;51.686;5.314;2023-04-24T10:00:28;9.60;99.90
13561;DHT22;6852;51.686;5.314;2023-04-24T10:03:04;9.60;99.90
13561;DHT22;6852;51.686;5.314;2023-04-24T10:05:33;9.70;99.90
13561;DHT22;6852;51.686;5.314;2023-04-24T10:08:10;9.70;99.90
13561;DHT22;6852;51.686;5.314;2023-04-24T10:10:42;9.80;99.90
13561;DHT22;6852;51.686;5.314;2023-04-24T10:13:11;9.90;99.90
13561;DHT22;6852;51.686;5.314;2023-04-24T10:15:39;10.00;99.90
13561;DHT22;6852;51.686;5.314;2023-04-24T10:18:08;9.80;99.90
13561;DHT22;6852;51.686;5.314;2023-04-24T10:20:37;9.80;99.90
13561;DHT22;6852;51.686;5.314;2023-04-24T10:23:05;9.70;99.90
13561;DHT22;6852;51.686;5.314;2023-04-24T10:25:36;9.70;99.90
13561;DHT22;6852;51.686;5.314;2023-04-24T10:28:04;9.60;99.90
13561;DHT22;6852;51.686;5.314;2023-04-24T10:30:33;9.50;99.90
13561;DHT22;6852;51.686;5.314;2023-04-24T10:33:05;9.40;99.90
13561;DHT22;6852;51.686;5.314;2023-04-24T10:35:40;9.60;99.90
13561;DHT22;6852;51.686;5.314;2023-04-24T10:38:11;9.70;99.90
13561;DHT22;6852;51.686;5.314;2023-04-24T10:40:39;9.60;99.90
13561;DHT22;6852;51.686;5.314;2023-04-24T10:43:07;9.80;99.90
13561;DHT22;6852;51.686;5.314;2023-04-24T10:45:37;9.80;99.90
13561;DHT22;6852;51.686;5.314;2023-04-24T10:48:05;9.90;99.90
13561;DHT22;6852;51.686;5.314;2023-04-24T10:50:51;9.90;99.90
13561;DHT22;6852;51.686;5.314;2023-04-24T10:53:20;9.90;99.90
13561;DHT22;6852;51.686;5.314;2023-04-24T10:55:57;9.80;99.90
13561;DHT22;6852;51.686;5.314;2023-04-24T10:58:40;9.80;99.90
13561;DHT22;6852;51.686;5.314;2023-04-24T11:01:07;9.70;99.90
13561;DHT22;6852;51.686;5.314;2023-04-24T11:03:35;9.80;99.90
13561;DHT22;6852;51.686;5.314;2023-04-24T11:06:05;9.90;99.90
13561;DHT22;6852;51.686;5.314;2023-04-24T11:08:45;10.10;99.90
13561;DHT22;6852;51.686;5.314;2023-04-24T11:11:17;10.40;99.90
13561;DHT22;6852;51.686;5.314;2023-04-24T11:16:26;10.30;99.90
13561;DHT22;6852;51.686;5.314;2023-04-24T11:21:54;10.30;99.90
13561;DHT22;6852;51.686;5.314;2023-04-24T11:27:05;10.10;99.90
13561;DHT22;6852;51.686;5.314;2023-04-24T11:37:37;10.10;99.90
13561;DHT22;6852;51.686;5.314;2023-04-24T11:40:07;10.00;99.90
13561;DHT22;6852;51.686;5.314;2023-04-24T11:42:42;10.00;99.90
13561;DHT22;6852;51.686;5.314;2023-04-24T11:45:11;10.00;99.90
13561;DHT22;6852;51.686;5.314;2023-04-24T11:47:38;9.80;99.90
13561;DHT22;6852;51.686;5.314;2023-04-24T11:50:08;9.80;99.90
13561;DHT22;6852;51.686;5.314;2023-04-24T11:52:40;9.80;99.90
13561;DHT22;6852;51.686;5.314;2023-04-24T11:57:47;10.10;99.90
13561;DHT22;6852;51.686;5.314;2023-04-24T12:00:28;10.20;99.90
13561;DHT22;6852;51.686;5.314;2023-04-24T12:03:07;10.40;99.90
13561;DHT22;6852;51.686;5.314;2023-04-24T12:05:35;10.40;99.90
13561;DHT22;6852;51.686;5.314;2023-04-24T12:08:03;10.40;99.90
13561;DHT22;6852;51.686;5.314;2023-04-24T12:10:31;10.50;99.90
13561;DHT22;6852;51.686;5.314;2023-04-24T12:12:58;10.60;1.00
13561;DHT22;6852;51.686;5.314;2023-04-24T12:15:26;10.60;99.90
13561;DHT22;6852;51.686;5.314;2023-04-24T12:17:54;10.60;99.90
13561;DHT22;6852;51.686;5.314;2023-04-24T12:20:29;10.60;99.90
13561;DHT22;6852;51.686;5.314;2023-04-24T12:22:58;10.50;99.90
13561;DHT22;6852;51.686;5.314;2023-04-24T12:25:27;10.40;1.00
13561;DHT22;6852;51.686;5.314;2023-04-24T12:30:33;10.40;99.90
13561;DHT22;6852;51.686;5.314;2023-04-24T12:33:02;10.40;99.90
13561;DHT22;6852;51.686;5.314;2023-04-24T12:35:31;10.20;99.90
13561;DHT22;6852;51.686;5.314;2023-04-24T12:38:07;10.20;99.90
13561;DHT22;6852;51.686;5.314;2023-04-24T12:40:35;10.00;99.90
13561;DHT22;6852;51.686;5.314;2023-04-24T12:43:14;9.80;99.90
13561;DHT22;6852;51.686;5.314;2023-04-24T12:45:42;9.80;99.90
13561;DHT22;6852;51.686;5.314;2023-04-24T12:48:09;9.70;99.90
13561;DHT22;6852;51.686;5.314;2023-04-24T12:50:36;9.90;99.90
13561;DHT22;6852;51.686;5.314;2023-04-24T12:53:03;10.00;99.90
13561;DHT22;6852;51.686;5.314;2023-04-24T12:55:30;10.10;99.90
13561;DHT22;6852;51.686;5.314;2023-04-24T12:57:56;10.10;1.00
13561;DHT22;6852;51.686;5.314;2023-04-24T13:00:24;10.40;99.90
13561;DHT22;6852;51.686;5.314;2023-04-24T13:02:51;10.60;99.90
13561;DHT22;6852;51.686;5.314;2023-04-24T13:05:18;11.00;99.90
13561;DHT22;6852;51.686;5.314;2023-04-24T13:07:45;11.10;99.90
13561;DHT22;6852;51.686;5.314;2023-04-24T13:10:12;11.10;99.90
13561;DHT22;6852;51.686;5.314;2023-04-24T13:12:40;11.40;99.90
13561;DHT22;6852;51.686;5.314;2023-04-24T13:15:07;11.40;99.90
13561;DHT22;6852;51.686;5.314;2023-04-24T13:17:34;11.60;99.90
13561;DHT22;6852;51.686;5.314;2023-04-24T13:20:01;11.60;99.90
13561;DHT22;6852;51.686;5.314;2023-04-24T13:22:29;11.80;99.90
13561;DHT22;6852;51.686;5.314;2023-04-24T13:24:56;11.40;99.90
13561;DHT22;6852;51.686;5.314;2023-04-24T13:27:23;11.20;99.90
13561;DHT22;6852;51.686;5.314;2023-04-24T13:29:50;10.80;99.90
13561;DHT22;6852;51.686;5.314;2023-04-24T13:32:17;10.50;99.90
13561;DHT22;6852;51.686;5.314;2023-04-24T13:34:44;10.30;99.90
13561;DHT22;6852;51.686;5.314;2023-04-24T13:37:11;10.30;99.90
13561;DHT22;6852;51.686;5.314;2023-04-24T13:39:38;10.10;99.90
13561;DHT22;6852;51.686;5.314;2023-04-24T13:42:05;10.10;99.90
13561;DHT22;6852;51.686;5.314;2023-04-24T13:44:32;10.30;99.90
13561;DHT22;6852;51.686;5.314;2023-04-24T13:46:59;10.20;99.90
13561;DHT22;6852;51.686;5.314;2023-04-24T13:49:27;10.10;99.90
13561;DHT22;6852;51.686;5.314;2023-04-24T13:51:55;10.30;99.90
13561;DHT22;6852;51.686;5.314;2023-04-24T13:54:22;10.40;99.90
13561;DHT22;6852;51.686;5.314;2023-04-24T13:56:52;10.40;1.00
13561;DHT22;6852;51.686;5.314;2023-04-24T13:59:22;10.50;1.00
13561;DHT22;6852;51.686;5.314;2023-04-24T14:01:49;10.70;77.10
13561;DHT22;6852;51.686;5.314;2023-04-24T14:04:16;11.20;99.90
13561;DHT22;6852;51.686;5.314;2023-04-24T14:06:43;11.20;99.90
13561;DHT22;6852;51.686;5.314;2023-04-24T14:09:10;11.30;99.90
13561;DHT22;6852;51.686;5.314;2023-04-24T14:11:37;11.20;99.90
13561;DHT22;6852;51.686;5.314;2023-04-24T14:14:04;11.10;99.90
13561;DHT22;6852;51.686;5.314;2023-04-24T14:16:32;11.10;99.90
13561;DHT22;6852;51.686;5.314;2023-04-24T14:18:59;10.90;99.90
13561;DHT22;6852;51.686;5.314;2023-04-24T14:21:26;10.70;99.90
13561;DHT22;6852;51.686;5.314;2023-04-24T14:23:52;10.70;99.90
13561;DHT22;6852;51.686;5.314;2023-04-24T14:26:19;10.80;99.90
13561;DHT22;6852;51.686;5.314;2023-04-24T14:28:46;10.80;99.90
13561;DHT22;6852;51.686;5.314;2023-04-24T14:31:13;10.70;69.70
13561;DHT22;6852;51.686;5.314;2023-04-24T14:33:40;10.70;1.00
13561;DHT22;6852;51.686;5.314;2023-04-24T14:36:07;10.90;99.90
13561;DHT22;6852;51.686;5.314;2023-04-24T14:38:34;10.80;99.90
13561;DHT22;6852;51.686;5.314;2023-04-24T14:41:01;10.80;99.90
13561;DHT22;6852;51.686;5.314;2023-04-24T14:43:38;10.80;99.90
13561;DHT22;6852;51.686;5.314;2023-04-24T14:46:05;10.20;99.90
13561;DHT22;6852;51.686;5.314;2023-04-24T14:48:32;10.00;99.90
13561;DHT22;6852;51.686;5.314;2023-04-24T14:50:59;9.70;99.90
13561;DHT22;6852;51.686;5.314;2023-04-24T14:53:26;9.70;99.90
13561;DHT22;6852;51.686;5.314;2023-04-24T14:55:53;9.40;99.90
13561;DHT22;6852;51.686;5.314;2023-04-24T14:58:20;9.60;99.90
13561;DHT22;6852;51.686;5.314;2023-04-24T15:00:47;9.70;99.90
13561;DHT22;6852;51.686;5.314;2023-04-24T15:03:18;9.60;99.90
13561;DHT22;6852;51.686;5.314;2023-04-24T15:05:46;9.50;99.90
13561;DHT22;6852;51.686;5.314;2023-04-24T15:08:13;9.70;99.90
13561;DHT22;6852;51.686;5.314;2023-04-24T15:10:40;9.80;99.90
13561;DHT22;6852;51.686;5.314;2023-04-24T15:13:07;9.90;99.90
13561;DHT22;6852;51.686;5.314;2023-04-24T15:15:34;9.90;1.00
13561;DHT22;6852;51.686;5.314;2023-04-24T15:18:01;9.90;99.90
13561;DHT22;6852;51.686;5.314;2023-04-24T15:20:28;10.00;99.90
13561;DHT22;6852;51.686;5.314;2023-04-24T15:22:55;10.30;99.90
13561;DHT22;6852;51.686;5.314;2023-04-24T15:25:22;10.50;99.90
13561;DHT22;6852;51.686;5.314;2023-04-24T15:27:49;10.40;99.90
13561;DHT22;6852;51.686;5.314;2023-04-24T15:30:16;10.60;1.00
13561;DHT22;6852;51.686;5.314;2023-04-24T15:32:43;10.60;99.90
13561;DHT22;6852;51.686;5.314;2023-04-24T15:35:10;10.60;1.00
13561;DHT22;6852;51.686;5.314;2023-04-24T15:37:38;10.80;99.90
13561;DHT22;6852;51.686;5.314;2023-04-24T15:40:05;11.00;1.00
13561;DHT22;6852;51.686;5.314;2023-04-24T15:42:34;11.10;1.00
13561;DHT22;6852;51.686;5.314;2023-04-24T15:45:02;11.00;99.90
13561;DHT22;6852;51.686;5.314;2023-04-24T15:47:30;11.00;99.90
13561;DHT22;6852;51.686;5.314;2023-04-24T15:49:57;10.80;1.00
13561;DHT22;6852;51.686;5.314;2023-04-24T15:52:24;10.60;1.00
13561;DHT22;6852;51.686;5.314;2023-04-24T15:54:51;10.80;1.00
13561;DHT22;6852;51.686;5.314;2023-04-24T15:57:18;11.00;1.00
13561;DHT22;6852;51.686;5.314;2023-04-24T15:59:45;11.00;1.00
13561;DHT22;6852;51.686;5.314;2023-04-24T16:02:13;10.90;1.00
13561;DHT22;6852;51.686;5.314;2023-04-24T16:04:49;10.90;1.00
13561;DHT22;6852;51.686;5.314;2023-04-24T16:07:17;11.00;1.00
13561;DHT22;6852;51.686;5.314;2023-04-24T16:09:44;11.00;1.00
13561;DHT22;6852;51.686;5.314;2023-04-24T16:12:11;11.00;1.00
13561;DHT22;6852;51.686;5.314;2023-04-24T16:14:38;11.10;1.00
13561;DHT22;6852;51.686;5.314;2023-04-24T16:17:06;11.00;1.00
13561;DHT22;6852;51.686;5.314;2023-04-24T16:19:32;11.00;1.00
13561;DHT22;6852;51.686;5.314;2023-04-24T16:22:01;10.90;1.00
13561;DHT22;6852;51.686;5.314;2023-04-24T16:24:29;10.90;1.00
13561;DHT22;6852;51.686;5.314;2023-04-24T16:26:56;11.10;1.00